sensor_id;sensor_type;location;lat;lon;timestamp;P1;durP1;ratioP1;P2;durP2;ratioP2
16660;SDS011;8444;52.012;5.048;2023-03-01T00:01:18;11.17;;;7.83;;
16660;SDS011;8444;52.012;5.048;2023-03-01T00:03:43;12.43;;;9.20;;
16660;SDS011;8444;52.012;5.048;2023-03-01T00:06:09;10.37;;;8.07;;
16660;SDS011;8444;52.012;5.048;2023-03-01T00:08:34;11.50;;;8.00;;
16660;SDS011;8444;52.012;5.048;2023-03-01T00:11:07;12.20;;;8.30;;
16660;SDS011;8444;52.012;5.048;2023-03-01T00:13:33;14.90;;;9.07;;
16660;SDS011;8444;52.012;5.048;2023-03-01T00:15:58;14.20;;;9.17;;
16660;SDS011;8444;52.012;5.048;2023-03-01T00:18:23;11.87;;;8.53;;
16660;SDS011;8444;52.012;5.048;2023-03-01T00:20:49;12.30;;;9.30;;
16660;SDS011;8444;52.012;5.048;2023-03-01T00:23:14;13.43;;;8.50;;
16660;SDS011;8444;52.012;5.048;2023-03-01T00:25:43;12.60;;;8.67;;
16660;SDS011;8444;52.012;5.048;2023-03-01T00:28:08;13.23;;;9.10;;
16660;SDS011;8444;52.012;5.048;2023-03-01T00:30:33;11.73;;;8.13;;
16660;SDS011;8444;52.012;5.048;2023-03-01T00:32:58;13.30;;;8.07;;
16660;SDS011;8444;52.012;5.048;2023-03-01T00:35:24;12.40;;;7.77;;
16660;SDS011;8444;52.012;5.048;2023-03-01T00:37:49;24.57;;;8.50;;
16660;SDS011;8444;52.012;5.048;2023-03-01T00:40:22;13.40;;;8.87;;
16660;SDS011;8444;52.012;5.048;2023-03-01T00:42:47;14.07;;;9.57;;
16660;SDS011;8444;52.012;5.048;2023-03-01T00:45:12;12.87;;;8.07;;
16660;SDS011;8444;52.012;5.048;2023-03-01T00:47:38;12.27;;;7.87;;
16660;SDS011;8444;52.012;5.048;2023-03-01T00:50:03;12.97;;;8.20;;
16660;SDS011;8444;52.012;5.048;2023-03-01T00:52:29;13.30;;;8.27;;
16660;SDS011;8444;52.012;5.048;2023-03-01T00:54:54;13.60;;;8.23;;
16660;SDS011;8444;52.012;5.048;2023-03-01T00:57:19;13.80;;;9.20;;
16660;SDS011;8444;52.012;5.048;2023-03-01T00:59:44;14.47;;;8.87;;
16660;SDS011;8444;52.012;5.048;2023-03-01T01:02:09;14.30;;;8.80;;
16660;SDS011;8444;52.012;5.048;2023-03-01T01:04:35;13.57;;;8.70;;
16660;SDS011;8444;52.012;5.048;2023-03-01T01:07:00;14.20;;;8.23;;
16660;SDS011;8444;52.012;5.048;2023-03-01T01:09:25;13.47;;;8.67;;
16660;SDS011;8444;52.012;5.048;2023-03-01T01:11:50;12.13;;;8.50;;
16660;SDS011;8444;52.012;5.048;2023-03-01T01:14:16;12.00;;;8.27;;
16660;SDS011;8444;52.012;5.048;2023-03-01T01:16:42;12.73;;;8.03;;
16660;SDS011;8444;52.012;5.048;2023-03-01T01:19:07;14.63;;;8.90;;
16660;SDS011;8444;52.012;5.048;2023-03-01T01:21:32;13.93;;;8.93;;
16660;SDS011;8444;52.012;5.048;2023-03-01T01:23:58;14.07;;;9.13;;
16660;SDS011;8444;52.012;5.048;2023-03-01T01:26:27;14.47;;;9.43;;
16660;SDS011;8444;52.012;5.048;2023-03-01T01:28:53;12.27;;;8.57;;
16660;SDS011;8444;52.012;5.048;2023-03-01T01:31:18;13.33;;;8.80;;
16660;SDS011;8444;52.012;5.048;2023-03-01T01:33:44;14.30;;;8.70;;
16660;SDS011;8444;52.012;5.048;2023-03-01T01:36:09;17.57;;;9.23;;
16660;SDS011;8444;52.012;5.048;2023-03-01T01:38:35;14.20;;;8.57;;
16660;SDS011;8444;52.012;5.048;2023-03-01T01:41:00;15.07;;;8.80;;
16660;SDS011;8444;52.012;5.048;2023-03-01T01:43:27;13.20;;;8.80;;
16660;SDS011;8444;52.012;5.048;2023-03-01T01:45:55;12.77;;;9.27;;
16660;SDS011;8444;52.012;5.048;2023-03-01T01:48:21;16.17;;;8.67;;
16660;SDS011;8444;52.012;5.048;2023-03-01T01:50:49;14.83;;;9.97;;
16660;SDS011;8444;52.012;5.048;2023-03-01T01:53:17;12.37;;;8.83;;
16660;SDS011;8444;52.012;5.048;2023-03-01T01:55:48;15.57;;;9.07;;
16660;SDS011;8444;52.012;5.048;2023-03-01T01:58:15;15.27;;;9.67;;
16660;SDS011;8444;52.012;5.048;2023-03-01T02:00:40;15.60;;;9.23;;
16660;SDS011;8444;52.012;5.048;2023-03-01T02:03:07;15.47;;;10.07;;
16660;SDS011;8444;52.012;5.048;2023-03-01T02:07:58;16.20;;;10.53;;
16660;SDS011;8444;52.012;5.048;2023-03-01T02:10:24;15.93;;;10.43;;
16660;SDS011;8444;52.012;5.048;2023-03-01T02:12:49;17.23;;;10.57;;
16660;SDS011;8444;52.012;5.048;2023-03-01T02:15:14;16.03;;;10.43;;
16660;SDS011;8444;52.012;5.048;2023-03-01T02:17:40;13.53;;;8.80;;
16660;SDS011;8444;52.012;5.048;2023-03-01T02:22:39;14.93;;;10.20;;
16660;SDS011;8444;52.012;5.048;2023-03-01T02:27:36;14.53;;;9.10;;
16660;SDS011;8444;52.012;5.048;2023-03-01T02:30:03;14.77;;;9.67;;
16660;SDS011;8444;52.012;5.048;2023-03-01T02:32:28;13.83;;;9.00;;
16660;SDS011;8444;52.012;5.048;2023-03-01T02:34:54;16.03;;;9.43;;
16660;SDS011;8444;52.012;5.048;2023-03-01T02:37:20;15.77;;;9.70;;
16660;SDS011;8444;52.012;5.048;2023-03-01T02:39:50;16.10;;;9.63;;
16660;SDS011;8444;52.012;5.048;2023-03-01T02:42:18;15.33;;;9.77;;
16660;SDS011;8444;52.012;5.048;2023-03-01T02:44:45;19.13;;;9.93;;
16660;SDS011;8444;52.012;5.048;2023-03-01T02:47:10;18.73;;;10.43;;
16660;SDS011;8444;52.012;5.048;2023-03-01T02:49:36;16.07;;;9.87;;
16660;SDS011;8444;52.012;5.048;2023-03-01T02:54:39;14.17;;;9.17;;
16660;SDS011;8444;52.012;5.048;2023-03-01T02:57:05;14.03;;;9.70;;
16660;SDS011;8444;52.012;5.048;2023-03-01T02:59:32;16.37;;;10.83;;
16660;SDS011;8444;52.012;5.048;2023-03-01T03:02:18;15.80;;;9.60;;
16660;SDS011;8444;52.012;5.048;2023-03-01T03:05:00;13.33;;;9.47;;
16660;SDS011;8444;52.012;5.048;2023-03-01T03:07:26;14.93;;;9.57;;
16660;SDS011;8444;52.012;5.048;2023-03-01T03:09:51;17.50;;;9.93;;
16660;SDS011;8444;52.012;5.048;2023-03-01T03:12:16;15.67;;;10.27;;
16660;SDS011;8444;52.012;5.048;2023-03-01T03:14:41;14.87;;;9.43;;
16660;SDS011;8444;52.012;5.048;2023-03-01T03:17:07;16.53;;;10.53;;
16660;SDS011;8444;52.012;5.048;2023-03-01T03:19:32;17.37;;;10.43;;
16660;SDS011;8444;52.012;5.048;2023-03-01T03:21:57;15.73;;;10.07;;
16660;SDS011;8444;52.012;5.048;2023-03-01T03:24:24;14.63;;;10.57;;
16660;SDS011;8444;52.012;5.048;2023-03-01T03:26:49;18.57;;;11.33;;
16660;SDS011;8444;52.012;5.048;2023-03-01T03:29:14;16.83;;;10.37;;
16660;SDS011;8444;52.012;5.048;2023-03-01T03:31:39;15.47;;;9.87;;
16660;SDS011;8444;52.012;5.048;2023-03-01T03:34:05;16.53;;;10.20;;
16660;SDS011;8444;52.012;5.048;2023-03-01T03:36:30;18.20;;;10.57;;
16660;SDS011;8444;52.012;5.048;2023-03-01T03:38:55;19.13;;;10.90;;
16660;SDS011;8444;52.012;5.048;2023-03-01T03:41:20;13.83;;;9.30;;
16660;SDS011;8444;52.012;5.048;2023-03-01T03:43:45;17.20;;;10.47;;
16660;SDS011;8444;52.012;5.048;2023-03-01T03:46:11;14.80;;;10.50;;
16660;SDS011;8444;52.012;5.048;2023-03-01T03:48:37;17.53;;;10.40;;
16660;SDS011;8444;52.012;5.048;2023-03-01T03:51:03;19.80;;;10.37;;
16660;SDS011;8444;52.012;5.048;2023-03-01T03:53:30;15.73;;;10.10;;
16660;SDS011;8444;52.012;5.048;2023-03-01T03:55:56;17.77;;;10.77;;
16660;SDS011;8444;52.012;5.048;2023-03-01T03:58:22;18.00;;;10.77;;
16660;SDS011;8444;52.012;5.048;2023-03-01T04:00:49;16.87;;;10.23;;
16660;SDS011;8444;52.012;5.048;2023-03-01T04:03:15;16.23;;;10.13;;
16660;SDS011;8444;52.012;5.048;2023-03-01T04:05:41;14.40;;;10.13;;
16660;SDS011;8444;52.012;5.048;2023-03-01T04:08:06;13.67;;;9.97;;
16660;SDS011;8444;52.012;5.048;2023-03-01T04:10:33;15.37;;;9.80;;
16660;SDS011;8444;52.012;5.048;2023-03-01T04:12:59;18.50;;;9.63;;
16660;SDS011;8444;52.012;5.048;2023-03-01T04:15:24;18.30;;;10.33;;
16660;SDS011;8444;52.012;5.048;2023-03-01T04:17:52;17.47;;;10.50;;
16660;SDS011;8444;52.012;5.048;2023-03-01T04:20:20;13.93;;;9.80;;
16660;SDS011;8444;52.012;5.048;2023-03-01T04:22:50;17.73;;;9.87;;
16660;SDS011;8444;52.012;5.048;2023-03-01T04:25:15;14.63;;;9.83;;
16660;SDS011;8444;52.012;5.048;2023-03-01T04:27:41;13.87;;;9.13;;
16660;SDS011;8444;52.012;5.048;2023-03-01T04:30:06;17.07;;;10.63;;
16660;SDS011;8444;52.012;5.048;2023-03-01T04:32:31;17.90;;;11.13;;
16660;SDS011;8444;52.012;5.048;2023-03-01T04:34:57;16.67;;;9.60;;
16660;SDS011;8444;52.012;5.048;2023-03-01T04:37:22;17.23;;;10.10;;
16660;SDS011;8444;52.012;5.048;2023-03-01T04:39:48;16.73;;;9.47;;
16660;SDS011;8444;52.012;5.048;2023-03-01T04:42:14;18.83;;;11.13;;
16660;SDS011;8444;52.012;5.048;2023-03-01T04:44:39;16.27;;;10.27;;
16660;SDS011;8444;52.012;5.048;2023-03-01T04:47:05;17.60;;;10.60;;
16660;SDS011;8444;52.012;5.048;2023-03-01T04:49:30;18.40;;;11.33;;
16660;SDS011;8444;52.012;5.048;2023-03-01T04:51:56;18.33;;;11.10;;
16660;SDS011;8444;52.012;5.048;2023-03-01T04:54:23;21.60;;;11.23;;
16660;SDS011;8444;52.012;5.048;2023-03-01T04:56:48;16.70;;;9.90;;
16660;SDS011;8444;52.012;5.048;2023-03-01T04:59:13;18.13;;;11.30;;
16660;SDS011;8444;52.012;5.048;2023-03-01T05:01:38;16.80;;;11.50;;
16660;SDS011;8444;52.012;5.048;2023-03-01T05:04:04;19.10;;;11.50;;
16660;SDS011;8444;52.012;5.048;2023-03-01T05:06:30;16.93;;;10.07;;
16660;SDS011;8444;52.012;5.048;2023-03-01T05:08:56;18.90;;;10.27;;
16660;SDS011;8444;52.012;5.048;2023-03-01T05:11:21;17.83;;;11.27;;
16660;SDS011;8444;52.012;5.048;2023-03-01T05:13:46;20.20;;;11.70;;
16660;SDS011;8444;52.012;5.048;2023-03-01T05:16:11;21.47;;;11.80;;
16660;SDS011;8444;52.012;5.048;2023-03-01T05:18:37;17.83;;;10.07;;
16660;SDS011;8444;52.012;5.048;2023-03-01T05:21:06;15.90;;;9.97;;
16660;SDS011;8444;52.012;5.048;2023-03-01T05:23:32;15.07;;;9.60;;
16660;SDS011;8444;52.012;5.048;2023-03-01T05:26:00;16.43;;;10.17;;
16660;SDS011;8444;52.012;5.048;2023-03-01T05:28:27;19.13;;;11.33;;
16660;SDS011;8444;52.012;5.048;2023-03-01T05:30:55;15.40;;;9.50;;
16660;SDS011;8444;52.012;5.048;2023-03-01T05:33:21;17.17;;;9.77;;
16660;SDS011;8444;52.012;5.048;2023-03-01T05:35:47;17.87;;;10.17;;
16660;SDS011;8444;52.012;5.048;2023-03-01T05:38:13;15.80;;;10.63;;
16660;SDS011;8444;52.012;5.048;2023-03-01T05:40:39;15.70;;;10.10;;
16660;SDS011;8444;52.012;5.048;2023-03-01T05:43:05;17.17;;;10.00;;
16660;SDS011;8444;52.012;5.048;2023-03-01T05:45:30;17.17;;;10.03;;
16660;SDS011;8444;52.012;5.048;2023-03-01T05:47:57;18.57;;;10.67;;
16660;SDS011;8444;52.012;5.048;2023-03-01T05:50:24;16.80;;;9.67;;
16660;SDS011;8444;52.012;5.048;2023-03-01T05:53:00;19.87;;;9.87;;
16660;SDS011;8444;52.012;5.048;2023-03-01T05:55:25;14.73;;;9.67;;
16660;SDS011;8444;52.012;5.048;2023-03-01T05:57:51;14.07;;;8.20;;
16660;SDS011;8444;52.012;5.048;2023-03-01T06:00:16;19.63;;;11.23;;
16660;SDS011;8444;52.012;5.048;2023-03-01T06:02:42;16.83;;;9.53;;
16660;SDS011;8444;52.012;5.048;2023-03-01T06:05:08;15.13;;;9.20;;
16660;SDS011;8444;52.012;5.048;2023-03-01T06:07:34;15.30;;;8.70;;
16660;SDS011;8444;52.012;5.048;2023-03-01T06:09:59;19.73;;;9.43;;
16660;SDS011;8444;52.012;5.048;2023-03-01T06:12:25;15.80;;;9.03;;
16660;SDS011;8444;52.012;5.048;2023-03-01T06:14:50;16.50;;;9.87;;
16660;SDS011;8444;52.012;5.048;2023-03-01T06:17:15;15.40;;;9.17;;
16660;SDS011;8444;52.012;5.048;2023-03-01T06:19:40;19.03;;;9.50;;
16660;SDS011;8444;52.012;5.048;2023-03-01T06:22:06;14.40;;;9.23;;
16660;SDS011;8444;52.012;5.048;2023-03-01T06:24:31;14.60;;;8.83;;
16660;SDS011;8444;52.012;5.048;2023-03-01T06:26:58;13.87;;;8.70;;
16660;SDS011;8444;52.012;5.048;2023-03-01T06:29:23;14.53;;;8.37;;
16660;SDS011;8444;52.012;5.048;2023-03-01T06:31:48;13.03;;;9.13;;
16660;SDS011;8444;52.012;5.048;2023-03-01T06:34:14;14.93;;;8.93;;
16660;SDS011;8444;52.012;5.048;2023-03-01T06:36:39;14.77;;;8.67;;
16660;SDS011;8444;52.012;5.048;2023-03-01T06:39:04;17.03;;;9.13;;
16660;SDS011;8444;52.012;5.048;2023-03-01T06:41:30;14.83;;;8.13;;
16660;SDS011;8444;52.012;5.048;2023-03-01T06:43:55;15.57;;;8.00;;
16660;SDS011;8444;52.012;5.048;2023-03-01T06:46:20;13.10;;;8.63;;
16660;SDS011;8444;52.012;5.048;2023-03-01T06:48:46;15.37;;;8.07;;
16660;SDS011;8444;52.012;5.048;2023-03-01T06:51:11;14.30;;;8.53;;
16660;SDS011;8444;52.012;5.048;2023-03-01T06:53:37;12.47;;;6.83;;
16660;SDS011;8444;52.012;5.048;2023-03-01T06:56:02;13.83;;;8.30;;
16660;SDS011;8444;52.012;5.048;2023-03-01T06:58:27;9.83;;;6.90;;
16660;SDS011;8444;52.012;5.048;2023-03-01T07:00:52;13.70;;;8.43;;
16660;SDS011;8444;52.012;5.048;2023-03-01T07:03:18;11.50;;;7.53;;
16660;SDS011;8444;52.012;5.048;2023-03-01T07:05:43;11.27;;;7.73;;
16660;SDS011;8444;52.012;5.048;2023-03-01T07:08:09;13.87;;;7.23;;
16660;SDS011;8444;52.012;5.048;2023-03-01T07:10:34;13.33;;;7.50;;
16660;SDS011;8444;52.012;5.048;2023-03-01T07:12:59;11.97;;;6.80;;
16660;SDS011;8444;52.012;5.048;2023-03-01T07:15:25;12.60;;;7.10;;
16660;SDS011;8444;52.012;5.048;2023-03-01T07:17:50;11.80;;;7.37;;
16660;SDS011;8444;52.012;5.048;2023-03-01T07:20:16;10.87;;;6.97;;
16660;SDS011;8444;52.012;5.048;2023-03-01T07:22:42;15.63;;;8.33;;
16660;SDS011;8444;52.012;5.048;2023-03-01T07:25:07;11.90;;;7.43;;
16660;SDS011;8444;52.012;5.048;2023-03-01T07:27:33;10.63;;;7.27;;
16660;SDS011;8444;52.012;5.048;2023-03-01T07:29:58;9.90;;;6.70;;
16660;SDS011;8444;52.012;5.048;2023-03-01T07:32:23;10.20;;;6.53;;
16660;SDS011;8444;52.012;5.048;2023-03-01T07:34:48;10.70;;;5.90;;
16660;SDS011;8444;52.012;5.048;2023-03-01T07:37:13;10.77;;;7.10;;
16660;SDS011;8444;52.012;5.048;2023-03-01T07:39:39;11.50;;;8.03;;
16660;SDS011;8444;52.012;5.048;2023-03-01T07:42:04;9.60;;;6.17;;
16660;SDS011;8444;52.012;5.048;2023-03-01T07:44:29;10.97;;;5.67;;
16660;SDS011;8444;52.012;5.048;2023-03-01T07:46:54;11.47;;;6.13;;
16660;SDS011;8444;52.012;5.048;2023-03-01T07:49:21;8.70;;;6.13;;
16660;SDS011;8444;52.012;5.048;2023-03-01T07:51:46;8.17;;;5.20;;
16660;SDS011;8444;52.012;5.048;2023-03-01T07:54:11;9.73;;;4.80;;
16660;SDS011;8444;52.012;5.048;2023-03-01T07:56:37;7.43;;;5.37;;
16660;SDS011;8444;52.012;5.048;2023-03-01T07:59:02;6.97;;;4.93;;
16660;SDS011;8444;52.012;5.048;2023-03-01T08:01:27;8.27;;;5.10;;
16660;SDS011;8444;52.012;5.048;2023-03-01T08:03:52;6.37;;;4.70;;
16660;SDS011;8444;52.012;5.048;2023-03-01T08:06:18;8.20;;;4.90;;
16660;SDS011;8444;52.012;5.048;2023-03-01T08:08:43;6.00;;;4.70;;
16660;SDS011;8444;52.012;5.048;2023-03-01T08:11:12;7.23;;;4.80;;
16660;SDS011;8444;52.012;5.048;2023-03-01T08:13:38;7.97;;;5.23;;
16660;SDS011;8444;52.012;5.048;2023-03-01T08:16:05;8.10;;;4.70;;
16660;SDS011;8444;52.012;5.048;2023-03-01T08:18:31;9.70;;;5.33;;
16660;SDS011;8444;52.012;5.048;2023-03-01T08:21:00;7.87;;;4.53;;
16660;SDS011;8444;52.012;5.048;2023-03-01T08:23:26;8.37;;;4.67;;
16660;SDS011;8444;52.012;5.048;2023-03-01T08:25:51;9.17;;;4.90;;
16660;SDS011;8444;52.012;5.048;2023-03-01T08:28:17;6.47;;;5.37;;
16660;SDS011;8444;52.012;5.048;2023-03-01T08:30:43;6.53;;;4.23;;
16660;SDS011;8444;52.012;5.048;2023-03-01T08:33:08;11.43;;;5.10;;
16660;SDS011;8444;52.012;5.048;2023-03-01T08:35:33;8.40;;;4.07;;
16660;SDS011;8444;52.012;5.048;2023-03-01T08:37:58;6.73;;;4.53;;
16660;SDS011;8444;52.012;5.048;2023-03-01T08:40:24;6.17;;;4.43;;
16660;SDS011;8444;52.012;5.048;2023-03-01T08:42:49;5.77;;;4.50;;
16660;SDS011;8444;52.012;5.048;2023-03-01T08:45:14;8.27;;;4.97;;
16660;SDS011;8444;52.012;5.048;2023-03-01T08:47:43;9.80;;;5.63;;
16660;SDS011;8444;52.012;5.048;2023-03-01T08:50:08;10.70;;;4.97;;
16660;SDS011;8444;52.012;5.048;2023-03-01T08:52:33;6.53;;;4.90;;
16660;SDS011;8444;52.012;5.048;2023-03-01T08:54:59;5.87;;;4.80;;
16660;SDS011;8444;52.012;5.048;2023-03-01T08:57:26;7.27;;;4.50;;
16660;SDS011;8444;52.012;5.048;2023-03-01T08:59:51;9.73;;;4.30;;
16660;SDS011;8444;52.012;5.048;2023-03-01T09:02:17;7.43;;;4.80;;
16660;SDS011;8444;52.012;5.048;2023-03-01T09:04:43;4.47;;;4.03;;
16660;SDS011;8444;52.012;5.048;2023-03-01T09:07:09;5.50;;;4.30;;
16660;SDS011;8444;52.012;5.048;2023-03-01T09:09:34;6.33;;;4.30;;
16660;SDS011;8444;52.012;5.048;2023-03-01T09:12:00;6.10;;;4.10;;
16660;SDS011;8444;52.012;5.048;2023-03-01T09:14:26;7.43;;;4.60;;
16660;SDS011;8444;52.012;5.048;2023-03-01T09:16:51;7.50;;;4.10;;
16660;SDS011;8444;52.012;5.048;2023-03-01T09:19:16;6.23;;;4.37;;
16660;SDS011;8444;52.012;5.048;2023-03-01T09:21:41;6.37;;;4.30;;
16660;SDS011;8444;52.012;5.048;2023-03-01T09:24:16;5.93;;;4.17;;
16660;SDS011;8444;52.012;5.048;2023-03-01T09:26:42;7.57;;;4.47;;
16660;SDS011;8444;52.012;5.048;2023-03-01T09:29:07;6.53;;;4.53;;
16660;SDS011;8444;52.012;5.048;2023-03-01T09:31:34;6.80;;;4.30;;
16660;SDS011;8444;52.012;5.048;2023-03-01T09:33:59;6.23;;;4.80;;
16660;SDS011;8444;52.012;5.048;2023-03-01T09:36:24;5.40;;;4.10;;
16660;SDS011;8444;52.012;5.048;2023-03-01T09:38:50;6.07;;;3.90;;
16660;SDS011;8444;52.012;5.048;2023-03-01T09:43:52;3.73;;;3.20;;
16660;SDS011;8444;52.012;5.048;2023-03-01T09:46:19;5.47;;;3.27;;
16660;SDS011;8444;52.012;5.048;2023-03-01T09:48:48;3.93;;;3.00;;
16660;SDS011;8444;52.012;5.048;2023-03-01T09:51:18;5.23;;;3.43;;
16660;SDS011;8444;52.012;5.048;2023-03-01T09:53:44;4.07;;;3.20;;
16660;SDS011;8444;52.012;5.048;2023-03-01T10:04:45;6.03;;;3.50;;
16660;SDS011;8444;52.012;5.048;2023-03-01T10:07:25;5.30;;;3.90;;
16660;SDS011;8444;52.012;5.048;2023-03-01T10:09:51;4.97;;;3.57;;
16660;SDS011;8444;52.012;5.048;2023-03-01T10:12:17;5.37;;;4.13;;
16660;SDS011;8444;52.012;5.048;2023-03-01T10:17:33;7.00;;;3.60;;
16660;SDS011;8444;52.012;5.048;2023-03-01T10:20:21;4.03;;;3.20;;
16660;SDS011;8444;52.012;5.048;2023-03-01T10:22:45;3.30;;;2.80;;
16660;SDS011;8444;52.012;5.048;2023-03-01T10:25:15;4.77;;;3.50;;
16660;SDS011;8444;52.012;5.048;2023-03-01T10:32:51;3.87;;;3.33;;
16660;SDS011;8444;52.012;5.048;2023-03-01T10:35:22;6.80;;;3.83;;
16660;SDS011;8444;52.012;5.048;2023-03-01T10:38:05;3.60;;;2.90;;
16660;SDS011;8444;52.012;5.048;2023-03-01T10:40:31;5.20;;;3.50;;
16660;SDS011;8444;52.012;5.048;2023-03-01T10:42:57;4.87;;;3.00;;
16660;SDS011;8444;52.012;5.048;2023-03-01T10:50:28;5.67;;;3.20;;
16660;SDS011;8444;52.012;5.048;2023-03-01T10:53:01;8.50;;;3.20;;
16660;SDS011;8444;52.012;5.048;2023-03-01T10:55:28;3.70;;;3.03;;
16660;SDS011;8444;52.012;5.048;2023-03-01T11:00:46;3.73;;;2.83;;
16660;SDS011;8444;52.012;5.048;2023-03-01T11:03:13;3.70;;;2.50;;
16660;SDS011;8444;52.012;5.048;2023-03-01T11:06:39;5.80;;;2.80;;
16660;SDS011;8444;52.012;5.048;2023-03-01T11:08:37;3.20;;;2.70;;
16660;SDS011;8444;52.012;5.048;2023-03-01T11:13:36;3.77;;;2.90;;
16660;SDS011;8444;52.012;5.048;2023-03-01T11:16:03;6.10;;;3.40;;
16660;SDS011;8444;52.012;5.048;2023-03-01T11:18:30;4.57;;;3.10;;
16660;SDS011;8444;52.012;5.048;2023-03-01T11:20:56;4.63;;;2.93;;
16660;SDS011;8444;52.012;5.048;2023-03-01T11:23:22;3.90;;;3.27;;
16660;SDS011;8444;52.012;5.048;2023-03-01T11:25:49;3.90;;;3.00;;
16660;SDS011;8444;52.012;5.048;2023-03-01T11:28:17;4.53;;;3.20;;
16660;SDS011;8444;52.012;5.048;2023-03-01T11:35:34;2.90;;;2.60;;
16660;SDS011;8444;52.012;5.048;2023-03-01T11:43:12;3.90;;;3.17;;
16660;SDS011;8444;52.012;5.048;2023-03-01T12:13:50;6.13;;;4.10;;
16660;SDS011;8444;52.012;5.048;2023-03-01T12:29:31;5.25;;;2.85;;
16660;SDS011;8444;52.012;5.048;2023-03-01T12:34:29;2.88;;;2.38;;
16660;SDS011;8444;52.012;5.048;2023-03-01T12:39:37;4.20;;;2.28;;
16660;SDS011;8444;52.012;5.048;2023-03-01T12:49:41;4.68;;;2.10;;
16660;SDS011;8444;52.012;5.048;2023-03-01T12:54:43;4.55;;;2.53;;
16660;SDS011;8444;52.012;5.048;2023-03-01T12:57:18;7.93;;;3.38;;
16660;SDS011;8444;52.012;5.048;2023-03-01T12:59:50;4.50;;;3.10;;
16660;SDS011;8444;52.012;5.048;2023-03-01T13:02:21;4.40;;;2.78;;
16660;SDS011;8444;52.012;5.048;2023-03-01T13:14:54;3.92;;;2.60;;
16660;SDS011;8444;52.012;5.048;2023-03-01T13:17:32;4.55;;;2.58;;
16660;SDS011;8444;52.012;5.048;2023-03-01T13:19:58;3.03;;;2.45;;
16660;SDS011;8444;52.012;5.048;2023-03-01T13:22:28;7.03;;;2.70;;
16660;SDS011;8444;52.012;5.048;2023-03-01T13:25:00;5.18;;;3.33;;
16660;SDS011;8444;52.012;5.048;2023-03-01T13:27:26;6.43;;;2.90;;
16660;SDS011;8444;52.012;5.048;2023-03-01T13:29:55;5.82;;;3.40;;
16660;SDS011;8444;52.012;5.048;2023-03-01T13:32:22;5.05;;;2.95;;
16660;SDS011;8444;52.012;5.048;2023-03-01T13:34:49;4.63;;;3.10;;
16660;SDS011;8444;52.012;5.048;2023-03-01T13:37:22;4.30;;;3.00;;
16660;SDS011;8444;52.012;5.048;2023-03-01T13:39:48;4.63;;;2.80;;
16660;SDS011;8444;52.012;5.048;2023-03-01T13:44:54;3.53;;;2.67;;
16660;SDS011;8444;52.012;5.048;2023-03-01T13:47:19;4.93;;;2.60;;
16660;SDS011;8444;52.012;5.048;2023-03-01T13:52:23;4.88;;;2.83;;
16660;SDS011;8444;52.012;5.048;2023-03-01T13:54:52;3.70;;;3.10;;
16660;SDS011;8444;52.012;5.048;2023-03-01T13:57:20;3.90;;;2.73;;
16660;SDS011;8444;52.012;5.048;2023-03-01T13:59:47;4.43;;;2.87;;
16660;SDS011;8444;52.012;5.048;2023-03-01T14:02:12;4.50;;;2.93;;
16660;SDS011;8444;52.012;5.048;2023-03-01T14:04:38;4.80;;;2.58;;
16660;SDS011;8444;52.012;5.048;2023-03-01T14:07:21;4.80;;;3.10;;
16660;SDS011;8444;52.012;5.048;2023-03-01T14:09:51;4.70;;;2.75;;
16660;SDS011;8444;52.012;5.048;2023-03-01T14:15:06;3.00;;;2.70;;
16660;SDS011;8444;52.012;5.048;2023-03-01T14:20:27;6.18;;;2.95;;
16660;SDS011;8444;52.012;5.048;2023-03-01T14:22:53;4.22;;;3.15;;
16660;SDS011;8444;52.012;5.048;2023-03-01T14:27:44;3.80;;;2.50;;
16660;SDS011;8444;52.012;5.048;2023-03-01T14:30:19;5.35;;;2.83;;
16660;SDS011;8444;52.012;5.048;2023-03-01T14:32:51;5.32;;;2.88;;
16660;SDS011;8444;52.012;5.048;2023-03-01T14:35:22;3.77;;;2.90;;
16660;SDS011;8444;52.012;5.048;2023-03-01T14:37:47;3.88;;;3.00;;
16660;SDS011;8444;52.012;5.048;2023-03-01T14:40:47;6.53;;;3.45;;
16660;SDS011;8444;52.012;5.048;2023-03-01T14:43:14;4.78;;;3.10;;
16660;SDS011;8444;52.012;5.048;2023-03-01T14:45:46;4.43;;;2.90;;
16660;SDS011;8444;52.012;5.048;2023-03-01T14:48:12;4.93;;;3.10;;
16660;SDS011;8444;52.012;5.048;2023-03-01T14:50:40;3.53;;;3.07;;
16660;SDS011;8444;52.012;5.048;2023-03-01T14:53:06;4.43;;;3.20;;
16660;SDS011;8444;52.012;5.048;2023-03-01T14:55:33;4.57;;;3.10;;
16660;SDS011;8444;52.012;5.048;2023-03-01T14:58:02;5.23;;;3.33;;
16660;SDS011;8444;52.012;5.048;2023-03-01T15:00:28;7.03;;;2.90;;
16660;SDS011;8444;52.012;5.048;2023-03-01T15:02:55;5.70;;;2.90;;
16660;SDS011;8444;52.012;5.048;2023-03-01T15:05:26;4.63;;;3.30;;
16660;SDS011;8444;52.012;5.048;2023-03-01T15:07:52;3.67;;;2.77;;
16660;SDS011;8444;52.012;5.048;2023-03-01T15:10:22;3.67;;;2.87;;
16660;SDS011;8444;52.012;5.048;2023-03-01T15:12:47;4.10;;;3.00;;
16660;SDS011;8444;52.012;5.048;2023-03-01T15:15:20;4.57;;;3.53;;
16660;SDS011;8444;52.012;5.048;2023-03-01T15:17:48;4.60;;;3.20;;
16660;SDS011;8444;52.012;5.048;2023-03-01T15:20:16;4.07;;;3.10;;
16660;SDS011;8444;52.012;5.048;2023-03-01T15:22:45;4.43;;;3.10;;
16660;SDS011;8444;52.012;5.048;2023-03-01T15:25:19;4.73;;;3.20;;
16660;SDS011;8444;52.012;5.048;2023-03-01T15:27:46;5.07;;;2.70;;
16660;SDS011;8444;52.012;5.048;2023-03-01T15:30:44;5.50;;;2.97;;
16660;SDS011;8444;52.012;5.048;2023-03-01T15:35:48;5.53;;;2.93;;
16660;SDS011;8444;52.012;5.048;2023-03-01T15:41:30;4.40;;;2.90;;
16660;SDS011;8444;52.012;5.048;2023-03-01T15:43:57;6.10;;;3.17;;
16660;SDS011;8444;52.012;5.048;2023-03-01T15:48:49;4.90;;;3.37;;
16660;SDS011;8444;52.012;5.048;2023-03-01T15:51:17;3.40;;;2.90;;
16660;SDS011;8444;52.012;5.048;2023-03-01T15:53:46;3.63;;;2.90;;
16660;SDS011;8444;52.012;5.048;2023-03-01T15:56:13;4.27;;;3.00;;
16660;SDS011;8444;52.012;5.048;2023-03-01T15:58:38;5.50;;;3.77;;
16660;SDS011;8444;52.012;5.048;2023-03-01T16:01:07;5.20;;;3.20;;
16660;SDS011;8444;52.012;5.048;2023-03-01T16:03:33;5.67;;;3.67;;
16660;SDS011;8444;52.012;5.048;2023-03-01T16:05:59;5.37;;;3.30;;
16660;SDS011;8444;52.012;5.048;2023-03-01T16:08:24;5.27;;;3.17;;
16660;SDS011;8444;52.012;5.048;2023-03-01T16:10:49;5.33;;;3.23;;
16660;SDS011;8444;52.012;5.048;2023-03-01T16:13:16;5.13;;;4.23;;
16660;SDS011;8444;52.012;5.048;2023-03-01T16:15:42;8.27;;;3.10;;
16660;SDS011;8444;52.012;5.048;2023-03-01T16:18:07;3.70;;;3.10;;
16660;SDS011;8444;52.012;5.048;2023-03-01T16:20:35;4.30;;;3.00;;
16660;SDS011;8444;52.012;5.048;2023-03-01T16:23:01;3.60;;;2.90;;
16660;SDS011;8444;52.012;5.048;2023-03-01T16:25:26;4.23;;;3.47;;
16660;SDS011;8444;52.012;5.048;2023-03-01T16:30:20;5.40;;;2.77;;
16660;SDS011;8444;52.012;5.048;2023-03-01T16:32:46;4.97;;;2.90;;
16660;SDS011;8444;52.012;5.048;2023-03-01T16:35:12;3.93;;;3.43;;
16660;SDS011;8444;52.012;5.048;2023-03-01T16:37:38;5.47;;;3.73;;
16660;SDS011;8444;52.012;5.048;2023-03-01T16:40:04;5.77;;;3.17;;
16660;SDS011;8444;52.012;5.048;2023-03-01T16:42:33;5.77;;;3.03;;
16660;SDS011;8444;52.012;5.048;2023-03-01T16:44:58;3.97;;;2.63;;
16660;SDS011;8444;52.012;5.048;2023-03-01T16:47:23;2.70;;;2.30;;
16660;SDS011;8444;52.012;5.048;2023-03-01T16:49:52;3.93;;;3.03;;
16660;SDS011;8444;52.012;5.048;2023-03-01T16:52:18;4.80;;;3.27;;
16660;SDS011;8444;52.012;5.048;2023-03-01T16:54:43;3.93;;;3.00;;
16660;SDS011;8444;52.012;5.048;2023-03-01T16:57:08;3.93;;;3.10;;
16660;SDS011;8444;52.012;5.048;2023-03-01T16:59:33;5.37;;;3.63;;
16660;SDS011;8444;52.012;5.048;2023-03-01T17:01:59;4.93;;;3.40;;
16660;SDS011;8444;52.012;5.048;2023-03-01T17:04:24;4.20;;;3.00;;
16660;SDS011;8444;52.012;5.048;2023-03-01T17:06:49;5.70;;;3.40;;
16660;SDS011;8444;52.012;5.048;2023-03-01T17:09:14;6.43;;;3.50;;
16660;SDS011;8444;52.012;5.048;2023-03-01T17:11:41;4.77;;;3.20;;